sensor_id;sensor_type;location;lat;lon;timestamp;P1;durP1;ratioP1;P2;durP2;ratioP2
39188;SDS011;24915;50.858;4.376;2022-08-25T00:01:18;5.47;;;4.00;;
39188;SDS011;24915;50.858;4.376;2022-08-25T00:03:48;13.20;;;4.57;;
39188;SDS011;24915;50.858;4.376;2022-08-25T00:06:14;7.63;;;4.47;;
39188;SDS011;24915;50.858;4.376;2022-08-25T00:08:40;9.52;;;4.35;;
39188;SDS011;24915;50.858;4.376;2022-08-25T00:11:07;11.48;;;4.63;;
39188;SDS011;24915;50.858;4.376;2022-08-25T00:13:36;7.63;;;4.03;;
39188;SDS011;24915;50.858;4.376;2022-08-25T00:16:05;4.30;;;3.88;;
39188;SDS011;24915;50.858;4.376;2022-08-25T00:18:31;7.72;;;4.22;;
39188;SDS011;24915;50.858;4.376;2022-08-25T00:20:57;6.50;;;4.68;;
39188;SDS011;24915;50.858;4.376;2022-08-25T00:23:23;5.35;;;4.20;;
39188;SDS011;24915;50.858;4.376;2022-08-25T00:25:48;4.28;;;3.88;;
39188;SDS011;24915;50.858;4.376;2022-08-25T00:28:15;7.18;;;4.43;;
39188;SDS011;24915;50.858;4.376;2022-08-25T00:30:41;5.15;;;4.05;;
39188;SDS011;24915;50.858;4.376;2022-08-25T00:33:07;6.95;;;3.90;;
39188;SDS011;24915;50.858;4.376;2022-08-25T00:35:33;9.07;;;4.00;;
39188;SDS011;24915;50.858;4.376;2022-08-25T00:37:59;8.25;;;4.00;;
39188;SDS011;24915;50.858;4.376;2022-08-25T00:40:25;8.07;;;4.13;;
39188;SDS011;24915;50.858;4.376;2022-08-25T00:42:52;6.90;;;4.18;;
39188;SDS011;24915;50.858;4.376;2022-08-25T00:45:18;5.95;;;4.25;;
39188;SDS011;24915;50.858;4.376;2022-08-25T00:47:45;9.10;;;4.55;;
39188;SDS011;24915;50.858;4.376;2022-08-25T00:50:11;8.73;;;4.78;;
39188;SDS011;24915;50.858;4.376;2022-08-25T00:52:38;7.68;;;4.75;;
39188;SDS011;24915;50.858;4.376;2022-08-25T00:55:10;5.15;;;4.18;;
39188;SDS011;24915;50.858;4.376;2022-08-25T00:57:41;6.43;;;4.38;;
39188;SDS011;24915;50.858;4.376;2022-08-25T01:00:17;8.88;;;4.82;;
39188;SDS011;24915;50.858;4.376;2022-08-25T01:02:47;7.32;;;4.57;;
39188;SDS011;24915;50.858;4.376;2022-08-25T01:05:13;5.28;;;4.50;;
39188;SDS011;24915;50.858;4.376;2022-08-25T01:07:39;5.50;;;3.97;;
39188;SDS011;24915;50.858;4.376;2022-08-25T01:10:07;6.95;;;4.53;;
39188;SDS011;24915;50.858;4.376;2022-08-25T01:12:34;5.32;;;4.10;;
39188;SDS011;24915;50.858;4.376;2022-08-25T01:15:01;5.63;;;4.93;;
39188;SDS011;24915;50.858;4.376;2022-08-25T01:17:32;6.35;;;4.53;;
39188;SDS011;24915;50.858;4.376;2022-08-25T01:20:21;7.13;;;5.30;;
39188;SDS011;24915;50.858;4.376;2022-08-25T01:22:49;11.27;;;5.00;;
39188;SDS011;24915;50.858;4.376;2022-08-25T01:25:25;9.63;;;4.90;;
39188;SDS011;24915;50.858;4.376;2022-08-25T01:27:58;8.10;;;4.57;;
39188;SDS011;24915;50.858;4.376;2022-08-25T01:30:24;9.35;;;4.60;;
39188;SDS011;24915;50.858;4.376;2022-08-25T01:32:50;5.05;;;4.57;;
39188;SDS011;24915;50.858;4.376;2022-08-25T01:35:16;6.53;;;4.53;;
39188;SDS011;24915;50.858;4.376;2022-08-25T01:37:42;4.82;;;4.38;;
39188;SDS011;24915;50.858;4.376;2022-08-25T01:40:08;5.68;;;4.20;;
39188;SDS011;24915;50.858;4.376;2022-08-25T01:45:19;5.95;;;5.20;;
39188;SDS011;24915;50.858;4.376;2022-08-25T01:47:45;10.82;;;4.70;;
39188;SDS011;24915;50.858;4.376;2022-08-25T01:50:10;9.48;;;4.95;;
39188;SDS011;24915;50.858;4.376;2022-08-25T01:52:45;5.68;;;4.50;;
39188;SDS011;24915;50.858;4.376;2022-08-25T01:55:14;6.57;;;5.15;;
39188;SDS011;24915;50.858;4.376;2022-08-25T01:57:40;6.57;;;4.95;;
39188;SDS011;24915;50.858;4.376;2022-08-25T02:00:06;5.97;;;4.75;;
39188;SDS011;24915;50.858;4.376;2022-08-25T02:02:34;13.32;;;4.97;;
39188;SDS011;24915;50.858;4.376;2022-08-25T02:04:59;6.57;;;4.43;;
39188;SDS011;24915;50.858;4.376;2022-08-25T02:07:26;8.23;;;5.07;;
39188;SDS011;24915;50.858;4.376;2022-08-25T02:09:52;8.00;;;4.60;;
39188;SDS011;24915;50.858;4.376;2022-08-25T02:12:17;5.88;;;5.38;;
39188;SDS011;24915;50.858;4.376;2022-08-25T02:14:44;8.10;;;5.30;;
39188;SDS011;24915;50.858;4.376;2022-08-25T02:17:10;10.63;;;5.07;;
39188;SDS011;24915;50.858;4.376;2022-08-25T02:19:35;6.10;;;4.90;;
39188;SDS011;24915;50.858;4.376;2022-08-25T02:22:02;5.35;;;4.82;;
39188;SDS011;24915;50.858;4.376;2022-08-25T02:24:28;5.20;;;4.80;;
39188;SDS011;24915;50.858;4.376;2022-08-25T02:26:54;5.40;;;4.50;;
39188;SDS011;24915;50.858;4.376;2022-08-25T02:29:20;6.60;;;5.20;;
39188;SDS011;24915;50.858;4.376;2022-08-25T02:31:45;6.95;;;5.22;;
39188;SDS011;24915;50.858;4.376;2022-08-25T02:34:11;7.53;;;5.28;;
39188;SDS011;24915;50.858;4.376;2022-08-25T02:36:39;8.65;;;5.53;;
39188;SDS011;24915;50.858;4.376;2022-08-25T02:39:06;6.22;;;5.45;;
39188;SDS011;24915;50.858;4.376;2022-08-25T02:41:33;6.03;;;5.03;;
39188;SDS011;24915;50.858;4.376;2022-08-25T02:43:59;9.23;;;5.20;;
39188;SDS011;24915;50.858;4.376;2022-08-25T02:46:25;10.40;;;5.13;;
39188;SDS011;24915;50.858;4.376;2022-08-25T02:48:51;6.68;;;5.05;;
39188;SDS011;24915;50.858;4.376;2022-08-25T02:51:18;8.32;;;5.38;;
39188;SDS011;24915;50.858;4.376;2022-08-25T02:53:50;11.40;;;5.10;;
39188;SDS011;24915;50.858;4.376;2022-08-25T02:56:16;10.32;;;5.70;;
39188;SDS011;24915;50.858;4.376;2022-08-25T02:58:44;10.32;;;5.25;;
39188;SDS011;24915;50.858;4.376;2022-08-25T03:01:10;6.18;;;5.47;;
39188;SDS011;24915;50.858;4.376;2022-08-25T03:03:37;5.20;;;4.68;;
39188;SDS011;24915;50.858;4.376;2022-08-25T03:06:05;8.77;;;5.60;;
39188;SDS011;24915;50.858;4.376;2022-08-25T03:08:35;9.57;;;5.57;;
39188;SDS011;24915;50.858;4.376;2022-08-25T03:11:01;12.70;;;5.47;;
39188;SDS011;24915;50.858;4.376;2022-08-25T03:13:27;7.72;;;5.10;;
39188;SDS011;24915;50.858;4.376;2022-08-25T03:15:53;10.35;;;5.63;;
39188;SDS011;24915;50.858;4.376;2022-08-25T03:18:19;9.68;;;5.28;;
39188;SDS011;24915;50.858;4.376;2022-08-25T03:20:44;7.40;;;5.38;;
39188;SDS011;24915;50.858;4.376;2022-08-25T03:23:10;5.97;;;5.10;;
39188;SDS011;24915;50.858;4.376;2022-08-25T03:25:37;6.57;;;5.18;;
39188;SDS011;24915;50.858;4.376;2022-08-25T03:28:23;9.45;;;5.80;;
39188;SDS011;24915;50.858;4.376;2022-08-25T03:30:50;8.20;;;4.63;;
39188;SDS011;24915;50.858;4.376;2022-08-25T03:33:17;8.95;;;4.85;;
39188;SDS011;24915;50.858;4.376;2022-08-25T03:35:43;6.00;;;4.05;;
39188;SDS011;24915;50.858;4.376;2022-08-25T03:38:09;6.18;;;3.60;;
39188;SDS011;24915;50.858;4.376;2022-08-25T03:40:35;4.40;;;3.30;;
39188;SDS011;24915;50.858;4.376;2022-08-25T03:43:02;10.75;;;3.67;;
39188;SDS011;24915;50.858;4.376;2022-08-25T03:45:28;7.30;;;3.67;;
39188;SDS011;24915;50.858;4.376;2022-08-25T03:47:54;5.65;;;3.35;;
39188;SDS011;24915;50.858;4.376;2022-08-25T03:50:20;3.90;;;3.25;;
39188;SDS011;24915;50.858;4.376;2022-08-25T03:52:53;6.22;;;3.22;;
39188;SDS011;24915;50.858;4.376;2022-08-25T03:55:21;5.72;;;3.35;;
39188;SDS011;24915;50.858;4.376;2022-08-25T03:57:48;7.22;;;3.47;;
39188;SDS011;24915;50.858;4.376;2022-08-25T04:00:14;9.82;;;3.10;;
39188;SDS011;24915;50.858;4.376;2022-08-25T04:02:40;4.13;;;2.95;;
39188;SDS011;24915;50.858;4.376;2022-08-25T04:05:07;8.70;;;4.22;;
39188;SDS011;24915;50.858;4.376;2022-08-25T04:07:33;10.18;;;4.32;;
39188;SDS011;24915;50.858;4.376;2022-08-25T04:09:59;7.97;;;4.00;;
39188;SDS011;24915;50.858;4.376;2022-08-25T04:12:24;9.00;;;3.78;;
39188;SDS011;24915;50.858;4.376;2022-08-25T04:14:50;6.72;;;3.75;;
39188;SDS011;24915;50.858;4.376;2022-08-25T04:17:17;9.43;;;3.65;;
39188;SDS011;24915;50.858;4.376;2022-08-25T04:19:43;9.07;;;3.35;;
39188;SDS011;24915;50.858;4.376;2022-08-25T04:22:08;7.32;;;3.65;;
39188;SDS011;24915;50.858;4.376;2022-08-25T04:24:34;8.85;;;4.22;;
39188;SDS011;24915;50.858;4.376;2022-08-25T04:27:00;8.45;;;4.40;;
39188;SDS011;24915;50.858;4.376;2022-08-25T04:29:26;16.10;;;5.20;;
39188;SDS011;24915;50.858;4.376;2022-08-25T04:31:52;11.80;;;5.10;;
39188;SDS011;24915;50.858;4.376;2022-08-25T04:34:20;13.10;;;4.50;;
39188;SDS011;24915;50.858;4.376;2022-08-25T04:36:48;11.05;;;4.80;;
39188;SDS011;24915;50.858;4.376;2022-08-25T04:39:17;9.52;;;4.90;;
39188;SDS011;24915;50.858;4.376;2022-08-25T04:41:45;9.27;;;4.75;;
39188;SDS011;24915;50.858;4.376;2022-08-25T04:44:11;10.50;;;4.85;;
39188;SDS011;24915;50.858;4.376;2022-08-25T04:46:37;7.72;;;4.18;;
39188;SDS011;24915;50.858;4.376;2022-08-25T04:49:03;11.25;;;4.15;;
39188;SDS011;24915;50.858;4.376;2022-08-25T04:51:33;12.18;;;4.50;;
39188;SDS011;24915;50.858;4.376;2022-08-25T04:54:02;13.98;;;4.32;;
39188;SDS011;24915;50.858;4.376;2022-08-25T04:56:30;8.55;;;3.92;;
39188;SDS011;24915;50.858;4.376;2022-08-25T04:59:00;5.75;;;3.80;;
39188;SDS011;24915;50.858;4.376;2022-08-25T05:01:28;8.60;;;3.90;;
39188;SDS011;24915;50.858;4.376;2022-08-25T05:03:54;9.57;;;3.92;;
39188;SDS011;24915;50.858;4.376;2022-08-25T05:06:22;8.25;;;3.90;;
39188;SDS011;24915;50.858;4.376;2022-08-25T05:08:47;7.95;;;4.00;;
39188;SDS011;24915;50.858;4.376;2022-08-25T05:11:14;9.15;;;3.75;;
39188;SDS011;24915;50.858;4.376;2022-08-25T05:13:42;8.50;;;3.40;;
39188;SDS011;24915;50.858;4.376;2022-08-25T05:16:08;6.25;;;3.88;;
39188;SDS011;24915;50.858;4.376;2022-08-25T05:18:33;8.77;;;4.13;;
39188;SDS011;24915;50.858;4.376;2022-08-25T05:21:03;8.10;;;3.60;;
39188;SDS011;24915;50.858;4.376;2022-08-25T05:23:32;8.95;;;3.38;;
39188;SDS011;24915;50.858;4.376;2022-08-25T05:26:03;8.55;;;3.20;;
39188;SDS011;24915;50.858;4.376;2022-08-25T05:28:30;5.65;;;3.40;;
39188;SDS011;24915;50.858;4.376;2022-08-25T05:31:00;6.70;;;3.20;;
39188;SDS011;24915;50.858;4.376;2022-08-25T05:33:27;10.52;;;3.28;;
39188;SDS011;24915;50.858;4.376;2022-08-25T05:35:53;5.97;;;3.47;;
39188;SDS011;24915;50.858;4.376;2022-08-25T05:38:19;11.60;;;3.63;;
39188;SDS011;24915;50.858;4.376;2022-08-25T05:40:45;4.47;;;3.10;;
39188;SDS011;24915;50.858;4.376;2022-08-25T05:43:11;8.63;;;3.03;;
39188;SDS011;24915;50.858;4.376;2022-08-25T05:45:39;8.38;;;3.33;;
39188;SDS011;24915;50.858;4.376;2022-08-25T05:48:05;8.50;;;3.17;;
39188;SDS011;24915;50.858;4.376;2022-08-25T05:50:31;6.38;;;3.00;;
39188;SDS011;24915;50.858;4.376;2022-08-25T05:52:56;7.75;;;3.10;;
39188;SDS011;24915;50.858;4.376;2022-08-25T05:55:22;10.18;;;3.00;;
39188;SDS011;24915;50.858;4.376;2022-08-25T05:57:48;6.65;;;3.10;;
39188;SDS011;24915;50.858;4.376;2022-08-25T06:00:14;5.32;;;2.95;;
39188;SDS011;24915;50.858;4.376;2022-08-25T06:02:41;6.90;;;2.92;;
39188;SDS011;24915;50.858;4.376;2022-08-25T06:05:12;5.50;;;2.88;;
39188;SDS011;24915;50.858;4.376;2022-08-25T06:07:40;8.82;;;3.38;;
39188;SDS011;24915;50.858;4.376;2022-08-25T06:10:07;7.88;;;2.88;;
39188;SDS011;24915;50.858;4.376;2022-08-25T06:12:38;10.95;;;3.40;;
39188;SDS011;24915;50.858;4.376;2022-08-25T06:15:05;15.02;;;3.67;;
39188;SDS011;24915;50.858;4.376;2022-08-25T06:17:34;17.40;;;3.38;;
39188;SDS011;24915;50.858;4.376;2022-08-25T06:20:05;11.68;;;3.25;;
39188;SDS011;24915;50.858;4.376;2022-08-25T06:22:35;12.38;;;3.45;;
39188;SDS011;24915;50.858;4.376;2022-08-25T06:25:02;9.18;;;3.38;;
39188;SDS011;24915;50.858;4.376;2022-08-25T06:27:31;11.13;;;3.13;;
39188;SDS011;24915;50.858;4.376;2022-08-25T06:29:58;7.47;;;2.90;;
39188;SDS011;24915;50.858;4.376;2022-08-25T06:32:29;5.93;;;3.28;;
39188;SDS011;24915;50.858;4.376;2022-08-25T06:35:00;9.68;;;3.22;;
39188;SDS011;24915;50.858;4.376;2022-08-25T06:37:26;5.03;;;3.03;;
39188;SDS011;24915;50.858;4.376;2022-08-25T06:39:52;7.55;;;2.95;;
39188;SDS011;24915;50.858;4.376;2022-08-25T06:42:17;5.70;;;3.25;;
39188;SDS011;24915;50.858;4.376;2022-08-25T06:44:43;9.75;;;3.10;;
39188;SDS011;24915;50.858;4.376;2022-08-25T06:47:09;15.35;;;3.05;;
39188;SDS011;24915;50.858;4.376;2022-08-25T06:49:35;10.10;;;3.13;;
39188;SDS011;24915;50.858;4.376;2022-08-25T06:52:00;10.68;;;3.33;;
39188;SDS011;24915;50.858;4.376;2022-08-25T06:54:26;11.55;;;3.00;;
39188;SDS011;24915;50.858;4.376;2022-08-25T06:56:52;13.00;;;3.22;;
39188;SDS011;24915;50.858;4.376;2022-08-25T06:59:17;6.60;;;3.00;;
39188;SDS011;24915;50.858;4.376;2022-08-25T07:01:43;12.00;;;3.50;;
39188;SDS011;24915;50.858;4.376;2022-08-25T07:04:09;12.18;;;3.15;;
39188;SDS011;24915;50.858;4.376;2022-08-25T07:06:35;7.80;;;2.58;;
39188;SDS011;24915;50.858;4.376;2022-08-25T07:09:04;6.97;;;2.70;;
39188;SDS011;24915;50.858;4.376;2022-08-25T07:11:32;6.43;;;2.80;;
39188;SDS011;24915;50.858;4.376;2022-08-25T07:14:02;9.77;;;2.40;;
39188;SDS011;24915;50.858;4.376;2022-08-25T07:16:30;10.38;;;2.58;;
39188;SDS011;24915;50.858;4.376;2022-08-25T07:18:56;5.45;;;2.65;;
39188;SDS011;24915;50.858;4.376;2022-08-25T07:21:23;3.65;;;2.30;;
39188;SDS011;24915;50.858;4.376;2022-08-25T07:23:49;11.27;;;2.60;;
39188;SDS011;24915;50.858;4.376;2022-08-25T07:26:17;5.80;;;2.38;;
39188;SDS011;24915;50.858;4.376;2022-08-25T07:28:47;9.15;;;2.75;;
39188;SDS011;24915;50.858;4.376;2022-08-25T07:31:15;6.57;;;2.63;;
39188;SDS011;24915;50.858;4.376;2022-08-25T07:33:41;7.18;;;2.90;;
39188;SDS011;24915;50.858;4.376;2022-08-25T07:36:26;7.85;;;2.83;;
39188;SDS011;24915;50.858;4.376;2022-08-25T07:38:52;12.18;;;2.67;;
39188;SDS011;24915;50.858;4.376;2022-08-25T07:41:18;9.02;;;2.72;;
39188;SDS011;24915;50.858;4.376;2022-08-25T07:43:44;5.45;;;2.85;;
39188;SDS011;24915;50.858;4.376;2022-08-25T07:46:09;8.57;;;3.08;;
39188;SDS011;24915;50.858;4.376;2022-08-25T07:48:35;4.50;;;3.60;;
39188;SDS011;24915;50.858;4.376;2022-08-25T07:51:05;6.43;;;2.58;;
39188;SDS011;24915;50.858;4.376;2022-08-25T07:53:32;7.72;;;2.70;;
39188;SDS011;24915;50.858;4.376;2022-08-25T07:55:58;7.68;;;2.40;;
39188;SDS011;24915;50.858;4.376;2022-08-25T07:58:24;7.80;;;5.22;;
39188;SDS011;24915;50.858;4.376;2022-08-25T08:00:49;10.90;;;2.85;;
39188;SDS011;24915;50.858;4.376;2022-08-25T08:03:17;8.77;;;2.67;;
39188;SDS011;24915;50.858;4.376;2022-08-25T08:05:44;10.63;;;2.75;;
39188;SDS011;24915;50.858;4.376;2022-08-25T08:08:10;6.55;;;2.33;;
39188;SDS011;24915;50.858;4.376;2022-08-25T08:10:39;6.85;;;2.55;;
39188;SDS011;24915;50.858;4.376;2022-08-25T08:13:06;8.68;;;2.70;;
39188;SDS011;24915;50.858;4.376;2022-08-25T08:15:33;8.13;;;2.20;;
39188;SDS011;24915;50.858;4.376;2022-08-25T08:18:00;8.75;;;2.45;;
39188;SDS011;24915;50.858;4.376;2022-08-25T08:20:27;14.38;;;2.40;;
39188;SDS011;24915;50.858;4.376;2022-08-25T08:22:55;6.70;;;2.50;;
39188;SDS011;24915;50.858;4.376;2022-08-25T08:25:21;6.97;;;2.10;;
39188;SDS011;24915;50.858;4.376;2022-08-25T08:27:47;5.25;;;2.15;;
39188;SDS011;24915;50.858;4.376;2022-08-25T08:30:14;2.80;;;2.00;;
39188;SDS011;24915;50.858;4.376;2022-08-25T08:32:40;7.15;;;2.10;;
39188;SDS011;24915;50.858;4.376;2022-08-25T08:35:07;6.70;;;2.30;;
39188;SDS011;24915;50.858;4.376;2022-08-25T08:37:33;2.30;;;1.65;;
39188;SDS011;24915;50.858;4.376;2022-08-25T08:40:03;2.53;;;1.50;;
39188;SDS011;24915;50.858;4.376;2022-08-25T08:42:48;4.18;;;1.90;;
39188;SDS011;24915;50.858;4.376;2022-08-25T08:45:25;3.00;;;1.80;;
39188;SDS011;24915;50.858;4.376;2022-08-25T08:50:51;7.53;;;2.00;;
39188;SDS011;24915;50.858;4.376;2022-08-25T08:56:24;5.20;;;2.75;;
39188;SDS011;24915;50.858;4.376;2022-08-25T08:59:09;5.72;;;2.58;;
39188;SDS011;24915;50.858;4.376;2022-08-25T09:01:53;9.57;;;3.58;;
39188;SDS011;24915;50.858;4.376;2022-08-25T09:04:28;8.30;;;5.18;;
39188;SDS011;24915;50.858;4.376;2022-08-25T09:07:03;8.85;;;2.20;;
39188;SDS011;24915;50.858;4.376;2022-08-25T09:09:35;5.60;;;2.08;;
39188;SDS011;24915;50.858;4.376;2022-08-25T09:14:48;6.13;;;2.20;;
39188;SDS011;24915;50.858;4.376;2022-08-25T09:31:20;4.70;;;1.90;;
39188;SDS011;24915;50.858;4.376;2022-08-25T09:33:54;4.43;;;2.17;;
39188;SDS011;24915;50.858;4.376;2022-08-25T09:36:23;4.07;;;1.95;;
39188;SDS011;24915;50.858;4.376;2022-08-25T09:38:49;5.53;;;2.03;;
39188;SDS011;24915;50.858;4.376;2022-08-25T09:41:16;8.80;;;2.20;;
39188;SDS011;24915;50.858;4.376;2022-08-25T09:43:58;3.70;;;1.80;;
39188;SDS011;24915;50.858;4.376;2022-08-25T09:46:27;5.47;;;2.00;;
39188;SDS011;24915;50.858;4.376;2022-08-25T09:51:30;4.03;;;2.00;;
39188;SDS011;24915;50.858;4.376;2022-08-25T09:54:02;3.55;;;1.70;;
39188;SDS011;24915;50.858;4.376;2022-08-25T09:56:35;10.50;;;2.03;;
39188;SDS011;24915;50.858;4.376;2022-08-25T10:01:52;2.33;;;2.10;;
39188;SDS011;24915;50.858;4.376;2022-08-25T10:04:53;6.55;;;1.65;;
39188;SDS011;24915;50.858;4.376;2022-08-25T10:07:47;8.88;;;1.92;;
39188;SDS011;24915;50.858;4.376;2022-08-25T10:10:22;4.70;;;1.77;;
39188;SDS011;24915;50.858;4.376;2022-08-25T10:13:03;12.38;;;1.95;;
39188;SDS011;24915;50.858;4.376;2022-08-25T10:15:42;5.30;;;1.88;;
39188;SDS011;24915;50.858;4.376;2022-08-25T10:21:06;5.75;;;1.73;;
39188;SDS011;24915;50.858;4.376;2022-08-25T10:23:44;7.35;;;2.40;;
39188;SDS011;24915;50.858;4.376;2022-08-25T10:26:19;7.07;;;2.10;;
39188;SDS011;24915;50.858;4.376;2022-08-25T10:35:02;7.20;;;1.70;;
39188;SDS011;24915;50.858;4.376;2022-08-25T10:38:10;3.53;;;1.40;;
39188;SDS011;24915;50.858;4.376;2022-08-25T10:40:47;8.73;;;1.70;;
39188;SDS011;24915;50.858;4.376;2022-08-25T10:43:37;5.75;;;2.03;;
39188;SDS011;24915;50.858;4.376;2022-08-25T11:00:40;3.78;;;1.52;;
39188;SDS011;24915;50.858;4.376;2022-08-25T11:03:19;4.40;;;1.70;;
39188;SDS011;24915;50.858;4.376;2022-08-25T11:05:58;7.07;;;4.82;;
39188;SDS011;24915;50.858;4.376;2022-08-25T11:11:12;8.93;;;1.88;;
39188;SDS011;24915;50.858;4.376;2022-08-25T11:13:51;3.72;;;1.63;;
39188;SDS011;24915;50.858;4.376;2022-08-25T11:19:02;4.65;;;1.60;;
39188;SDS011;24915;50.858;4.376;2022-08-25T11:22:09;1.80;;;1.42;;
39188;SDS011;24915;50.858;4.376;2022-08-25T11:24:50;3.88;;;1.48;;
39188;SDS011;24915;50.858;4.376;2022-08-25T11:27:19;4.32;;;1.40;;
39188;SDS011;24915;50.858;4.376;2022-08-25T11:30:02;9.52;;;1.55;;
39188;SDS011;24915;50.858;4.376;2022-08-25T11:32:32;5.05;;;1.58;;
39188;SDS011;24915;50.858;4.376;2022-08-25T11:35:00;5.00;;;1.63;;
39188;SDS011;24915;50.858;4.376;2022-08-25T11:37:29;4.07;;;1.50;;
39188;SDS011;24915;50.858;4.376;2022-08-25T11:40:07;3.72;;;1.80;;
39188;SDS011;24915;50.858;4.376;2022-08-25T11:51:02;3.22;;;1.60;;
39188;SDS011;24915;50.858;4.376;2022-08-25T11:53:37;3.78;;;1.67;;
39188;SDS011;24915;50.858;4.376;2022-08-25T11:56:07;6.85;;;1.70;;
39188;SDS011;24915;50.858;4.376;2022-08-25T11:58:53;2.35;;;1.55;;
39188;SDS011;24915;50.858;4.376;2022-08-25T12:04:13;4.55;;;1.75;;
39188;SDS011;24915;50.858;4.376;2022-08-25T12:10:07;2.53;;;1.83;;
39188;SDS011;24915;50.858;4.376;2022-08-25T12:17:57;5.22;;;2.40;;
39188;SDS011;24915;50.858;4.376;2022-08-25T12:23:28;2.40;;;1.52;;
39188;SDS011;24915;50.858;4.376;2022-08-25T12:26:17;2.70;;;1.67;;
39188;SDS011;24915;50.858;4.376;2022-08-25T12:29:03;4.95;;;1.73;;
39188;SDS011;24915;50.858;4.376;2022-08-25T12:36:40;8.25;;;1.77;;
39188;SDS011;24915;50.858;4.376;2022-08-25T12:39:22;3.40;;;1.67;;
39188;SDS011;24915;50.858;4.376;2022-08-25T12:42:04;3.65;;;1.40;;
39188;SDS011;24915;50.858;4.376;2022-08-25T12:44:41;5.05;;;1.50;;
39188;SDS011;24915;50.858;4.376;2022-08-25T12:49:48;2.85;;;1.50;;
39188;SDS011;24915;50.858;4.376;2022-08-25T12:52:15;4.85;;;1.45;;
39188;SDS011;24915;50.858;4.376;2022-08-25T13:08:18;6.75;;;1.23;;
39188;SDS011;24915;50.858;4.376;2022-08-25T13:11:19;6.47;;;1.67;;
39188;SDS011;24915;50.858;4.376;2022-08-25T13:14:28;5.10;;;1.60;;
39188;SDS011;24915;50.858;4.376;2022-08-25T13:17:03;5.68;;;1.50;;
39188;SDS011;24915;50.858;4.376;2022-08-25T13:19:30;4.18;;;1.80;;
39188;SDS011;24915;50.858;4.376;2022-08-25T13:21:56;4.72;;;1.60;;
39188;SDS011;24915;50.858;4.376;2022-08-25T13:24:24;2.38;;;1.60;;
39188;SDS011;24915;50.858;4.376;2022-08-25T13:26:58;4.40;;;1.70;;
39188;SDS011;24915;50.858;4.376;2022-08-25T13:29:27;5.88;;;1.73;;
39188;SDS011;24915;50.858;4.376;2022-08-25T13:31:57;5.68;;;1.52;;
39188;SDS011;24915;50.858;4.376;2022-08-25T13:36:56;1.58;;;1.48;;
39188;SDS011;24915;50.858;4.376;2022-08-25T13:40:08;2.75;;;1.52;;
39188;SDS011;24915;50.858;4.376;2022-08-25T13:42:48;1.50;;;1.40;;
39188;SDS011;24915;50.858;4.376;2022-08-25T13:45:17;2.65;;;1.65;;
39188;SDS011;24915;50.858;4.376;2022-08-25T13:47:45;2.33;;;1.60;;
39188;SDS011;24915;50.858;4.376;2022-08-25T13:50:17;5.45;;;1.98;;
39188;SDS011;24915;50.858;4.376;2022-08-25T13:52:53;2.95;;;2.30;;
39188;SDS011;24915;50.858;4.376;2022-08-25T13:55:23;5.45;;;2.50;;
39188;SDS011;24915;50.858;4.376;2022-08-25T13:57:58;6.30;;;2.28;;
39188;SDS011;24915;50.858;4.376;2022-08-25T14:00:47;12.02;;;3.80;;
39188;SDS011;24915;50.858;4.376;2022-08-25T14:03:31;14.70;;;4.05;;
39188;SDS011;24915;50.858;4.376;2022-08-25T14:06:09;27.70;;;7.78;;
39188;SDS011;24915;50.858;4.376;2022-08-25T14:09:06;13.73;;;3.72;;
39188;SDS011;24915;50.858;4.376;2022-08-25T14:11:45;16.58;;;3.78;;
39188;SDS011;24915;50.858;4.376;2022-08-25T14:16:49;9.50;;;3.28;;
39188;SDS011;24915;50.858;4.376;2022-08-25T14:19:22;7.40;;;3.38;;
39188;SDS011;24915;50.858;4.376;2022-08-25T14:21:49;12.02;;;3.35;;
39188;SDS011;24915;50.858;4.376;2022-08-25T14:24:19;12.45;;;3.50;;
39188;SDS011;24915;50.858;4.376;2022-08-25T14:26:46;13.32;;;3.67;;
39188;SDS011;24915;50.858;4.376;2022-08-25T14:29:12;13.52;;;3.60;;
39188;SDS011;24915;50.858;4.376;2022-08-25T14:31:40;14.85;;;4.63;;
39188;SDS011;24915;50.858;4.376;2022-08-25T14:34:14;8.25;;;3.75;;
39188;SDS011;24915;50.858;4.376;2022-08-25T14:36:43;11.98;;;3.58;;
39188;SDS011;24915;50.858;4.376;2022-08-25T14:39:09;7.88;;;3.40;;
39188;SDS011;24915;50.858;4.376;2022-08-25T14:41:36;8.10;;;3.35;;
39188;SDS011;24915;50.858;4.376;2022-08-25T14:44:04;7.32;;;3.38;;
39188;SDS011;24915;50.858;4.376;2022-08-25T14:46:32;10.85;;;2.85;;
39188;SDS011;24915;50.858;4.376;2022-08-25T14:49:02;14.38;;;3.10;;
39188;SDS011;24915;50.858;4.376;2022-08-25T14:51:29;6.70;;;3.05;;
39188;SDS011;24915;50.858;4.376;2022-08-25T14:54:00;8.25;;;3.30;;
39188;SDS011;24915;50.858;4.376;2022-08-25T14:56:29;10.93;;;2.88;;
39188;SDS011;24915;50.858;4.376;2022-08-25T14:58:55;8.65;;;3.13;;
39188;SDS011;24915;50.858;4.376;2022-08-25T15:01:22;7.28;;;2.67;;
39188;SDS011;24915;50.858;4.376;2022-08-25T15:03:49;5.47;;;3.00;;
39188;SDS011;24915;50.858;4.376;2022-08-25T15:06:18;16.33;;;3.28;;
39188;SDS011;24915;50.858;4.376;2022-08-25T15:08:44;12.90;;;3.17;;
39188;SDS011;24915;50.858;4.376;2022-08-25T15:11:28;10.27;;;3.45;;
39188;SDS011;24915;50.858;4.376;2022-08-25T15:13:55;9.20;;;3.47;;
39188;SDS011;24915;50.858;4.376;2022-08-25T15:18:49;13.10;;;3.95;;
39188;SDS011;24915;50.858;4.376;2022-08-25T15:21:15;10.93;;;4.20;;
39188;SDS011;24915;50.858;4.376;2022-08-25T15:23:41;10.02;;;4.22;;
39188;SDS011;24915;50.858;4.376;2022-08-25T15:26:07;13.00;;;5.35;;
39188;SDS011;24915;50.858;4.376;2022-08-25T15:28:36;10.32;;;5.72;;
39188;SDS011;24915;50.858;4.376;2022-08-25T15:31:05;16.77;;;6.10;;
39188;SDS011;24915;50.858;4.376;2022-08-25T15:33:31;10.88;;;5.90;;
39188;SDS011;24915;50.858;4.376;2022-08-25T15:35:57;19.30;;;7.88;;
39188;SDS011;24915;50.858;4.376;2022-08-25T15:38:22;15.75;;;5.10;;
39188;SDS011;24915;50.858;4.376;2022-08-25T15:40:48;13.48;;;5.22;;
39188;SDS011;24915;50.858;4.376;2022-08-25T15:43:14;13.05;;;5.50;;
39188;SDS011;24915;50.858;4.376;2022-08-25T15:45:40;12.50;;;5.65;;
39188;SDS011;24915;50.858;4.376;2022-08-25T15:48:06;16.30;;;6.63;;
39188;SDS011;24915;50.858;4.376;2022-08-25T15:50:32;11.35;;;6.45;;
39188;SDS011;24915;50.858;4.376;2022-08-25T15:52:58;15.68;;;6.32;;
39188;SDS011;24915;50.858;4.376;2022-08-25T15:55:24;11.93;;;5.55;;
39188;SDS011;24915;50.858;4.376;2022-08-25T15:57:49;11.40;;;4.72;;
39188;SDS011;24915;50.858;4.376;2022-08-25T16:00:15;12.43;;;5.47;;
39188;SDS011;24915;50.858;4.376;2022-08-25T16:02:42;11.75;;;5.13;;
39188;SDS011;24915;50.858;4.376;2022-08-25T16:05:09;16.50;;;5.40;;
39188;SDS011;24915;50.858;4.376;2022-08-25T16:07:35;9.13;;;5.85;;
39188;SDS011;24915;50.858;4.376;2022-08-25T16:10:02;13.18;;;6.53;;
39188;SDS011;24915;50.858;4.376;2022-08-25T16:12:28;14.75;;;5.65;;
39188;SDS011;24915;50.858;4.376;2022-08-25T16:14:54;9.88;;;5.03;;
39188;SDS011;24915;50.858;4.376;2022-08-25T16:17:21;9.65;;;5.78;;
39188;SDS011;24915;50.858;4.376;2022-08-25T16:19:47;10.95;;;6.70;;
39188;SDS011;24915;50.858;4.376;2022-08-25T16:22:13;12.13;;;7.47;;
39188;SDS011;24915;50.858;4.376;2022-08-25T16:24:42;15.48;;;8.60;;
39188;SDS011;24915;50.858;4.376;2022-08-25T16:27:10;20.73;;;9.82;;
39188;SDS011;24915;50.858;4.376;2022-08-25T16:29:37;14.65;;;7.45;;
39188;SDS011;24915;50.858;4.376;2022-08-25T16:32:08;14.57;;;7.55;;
39188;SDS011;24915;50.858;4.376;2022-08-25T16:34:35;15.68;;;9.82;;
39188;SDS011;24915;50.858;4.376;2022-08-25T16:37:02;18.60;;;8.93;;
39188;SDS011;24915;50.858;4.376;2022-08-25T16:39:28;16.92;;;8.82;;
39188;SDS011;24915;50.858;4.376;2022-08-25T16:41:54;15.55;;;9.60;;
39188;SDS011;24915;50.858;4.376;2022-08-25T16:44:20;17.98;;;9.50;;
39188;SDS011;24915;50.858;4.376;2022-08-25T16:46:46;19.48;;;10.07;;
39188;SDS011;24915;50.858;4.376;2022-08-25T16:49:12;20.70;;;9.02;;